Time;durP1;ratioP1;P1;durP2;ratioP2;P2;SDS_P1;SDS_P2;PMS_P1;PMS_P2;Temp;Humidity;BMP_temperature;BMP_pressure;BME280_temperature;BME280_humidity;BME280_pressure;Samples;Min_cycle;Max_cycle;Signal;HPM_P1;HPM_P2
2022/10/12 00:01:19;;;;;;;0.20;0.20;;;10.90;99.90;;;;;;5034043;28;20202;-91
2022/10/12 00:03:44;;;;;;;0.20;0.20;;;10.80;99.90;;;;;;5036923;28;20200;-93
2022/10/12 00:06:13;;;;;;;0.20;0.20;;;10.80;99.90;;;;;;5035312;28;20446;-94
2022/10/12 00:08:41;;;;;;;0.20;0.20;;;10.70;99.90;;;;;;5035019;28;20187;-93
2022/10/12 00:11:07;;;;;;;0.20;0.20;;;10.80;99.90;;;;;;5033838;28;20451;-93
2022/10/12 00:13:33;;;;;;;0.20;0.20;;;10.80;99.90;;;;;;5033059;28;20823;-92
2022/10/12 00:16:04;;;;;;;0.20;0.20;;;10.80;99.90;;;;;;5039201;28;20457;-94
2022/10/12 00:18:31;;;;;;;0.20;0.20;;;10.70;99.90;;;;;;5035017;28;20226;-93
2022/10/12 00:21:04;;;;;;;0.20;0.20;;;10.70;99.90;;;;;;5031184;28;20988;-94
2022/10/12 00:23:30;;;;;;;0.20;0.20;;;10.70;99.90;;;;;;5034834;28;20442;-93
2022/10/12 00:26:00;;;;;;;0.20;0.20;;;10.70;99.90;;;;;;5037763;28;20444;-92
2022/10/12 00:28:25;;;;;;;0.20;0.20;;;10.70;99.90;;;;;;5037826;28;20657;-93
2022/10/12 00:30:51;;;;;;;0.20;0.20;;;10.70;99.90;;;;;;5035488;28;20446;-92
2022/10/12 00:33:16;;;;;;;0.20;0.20;;;10.70;99.90;;;;;;5032601;28;20188;-93
2022/10/12 00:35:42;;;;;;;0.20;0.20;;;10.70;99.90;;;;;;5035528;28;20564;-94
2022/10/12 00:38:07;;;;;;;0.20;0.20;;;10.70;99.90;;;;;;5021015;28;20222;-93
2022/10/12 00:40:33;;;;;;;0.20;0.20;;;10.60;99.90;;;;;;5045157;28;20730;-92
2022/10/12 00:42:58;;;;;;;0.20;0.20;;;10.60;99.90;;;;;;5041471;28;20231;-93
2022/10/12 00:45:25;;;;;;;0.20;0.20;;;10.60;99.90;;;;;;5040584;28;20188;-93
2022/10/12 00:47:59;;;;;;;0.20;0.20;;;10.60;99.90;;;;;;5036312;28;20659;-92
2022/10/12 00:50:29;;;;;;;0.20;0.20;;;10.50;99.90;;;;;;5029521;28;20438;-93
2022/10/12 00:53:15;;;;;;;0.20;0.20;;;10.50;99.90;;;;;;5033996;28;20449;-94
2022/10/12 00:55:47;;;;;;;0.20;0.20;;;10.60;99.90;;;;;;5029084;28;20441;-93
2022/10/12 00:58:13;;;;;;;0.20;0.20;;;10.60;99.90;;;;;;5037287;28;20470;-93
2022/10/12 01:00:41;;;;;;;0.20;0.20;;;10.60;99.90;;;;;;5036900;28;20438;-93
2022/10/12 01:03:11;;;;;;;0.20;0.20;;;10.50;99.90;;;;;;5036794;28;20500;-93
2022/10/12 01:05:39;;;;;;;0.20;0.20;;;10.50;99.90;;;;;;5037708;28;20430;-93
2022/10/12 01:08:05;;;;;;;0.20;0.20;;;10.50;99.90;;;;;;5039074;28;20512;-93
2022/10/12 01:10:30;;;;;;;0.20;0.20;;;10.50;99.90;;;;;;5029858;28;21443;-93
2022/10/12 01:12:56;;;;;;;0.20;0.20;;;10.50;99.90;;;;;;5037450;28;20438;-95
2022/10/12 01:15:24;;;;;;;0.20;0.20;;;10.50;99.90;;;;;;5032050;28;20188;-93
2022/10/12 01:18:17;;;;;;;0.20;0.20;;;10.50;99.90;;;;;;5025095;28;20294;-93
2022/10/12 01:21:14;;;;;;;0.20;0.20;;;10.50;99.90;;;;;;5030296;28;20446;-95
2022/10/12 01:24:19;;;;;;;0.20;0.20;;;10.40;99.90;;;;;;5039528;28;20968;-92
2022/10/12 01:27:02;;;;;;;0.20;0.20;;;10.40;99.90;;;;;;5039899;28;20457;-94
2022/10/12 01:29:57;;;;;;;0.20;0.20;;;10.40;99.90;;;;;;5039002;28;20441;-94
2022/10/12 01:32:43;;;;;;;0.20;0.20;;;10.30;99.90;;;;;;5042176;28;20462;-93
2022/10/12 01:35:18;;;;;;;0.20;0.20;;;10.30;99.90;;;;;;5035122;28;20438;-92
2022/10/12 01:38:04;;;;;;;0.20;0.20;;;10.30;99.90;;;;;;5034176;28;20474;-92
2022/10/12 01:40:39;;;;;;;0.20;0.20;;;10.20;99.90;;;;;;5039249;28;20430;-92
2022/10/12 01:43:06;;;;;;;0.20;0.20;;;10.30;99.90;;;;;;5036763;28;20968;-93
2022/10/12 01:45:31;;;;;;;0.20;0.20;;;10.30;99.90;;;;;;5035764;28;20473;-94
2022/10/12 01:47:57;;;;;;;0.20;0.20;;;10.30;99.90;;;;;;5037397;28;20450;-95
2022/10/12 01:50:39;;;;;;;0.20;0.20;;;10.20;99.90;;;;;;5035738;28;20247;-92
2022/10/12 01:53:30;;;;;;;0.20;0.20;;;10.10;99.90;;;;;;5033468;28;20183;-95
2022/10/12 01:56:19;;;;;;;0.20;0.20;;;10.10;99.90;;;;;;5023195;28;20941;-94
2022/10/12 01:59:17;;;;;;;0.20;0.20;;;10.10;99.90;;;;;;5035037;28;20608;-94
2022/10/12 02:01:57;;;;;;;0.20;0.20;;;10.10;99.90;;;;;;5027914;28;20495;-94
2022/10/12 02:04:50;;;;;;;0.20;0.20;;;10.00;99.90;;;;;;5030381;28;20556;-94
2022/10/12 02:07:31;;;;;;;0.20;0.20;;;10.10;99.90;;;;;;5030450;28;20446;-92
2022/10/12 02:09:59;;;;;;;0.20;0.20;;;10.00;99.90;;;;;;5034254;28;20488;-92
2022/10/12 02:12:28;;;;;;;0.20;0.20;;;10.00;99.90;;;;;;5034039;28;20537;-94
2022/10/12 02:14:59;;;;;;;0.20;0.20;;;10.00;99.90;;;;;;5031100;28;21032;-93
2022/10/12 02:17:25;;;;;;;0.20;0.20;;;10.00;99.90;;;;;;5033776;28;20485;-93
2022/10/12 02:19:56;;;;;;;0.20;0.20;;;10.00;99.90;;;;;;5028283;28;20439;-93
2022/10/12 02:22:27;;;;;;;0.20;0.20;;;10.00;99.90;;;;;;5038301;28;20461;-94
2022/10/12 02:24:55;;;;;;;0.20;0.20;;;10.00;99.90;;;;;;5042914;28;20484;-94
2022/10/12 02:27:23;;;;;;;0.20;0.20;;;10.00;99.90;;;;;;5041478;28;20446;-93
2022/10/12 02:29:49;;;;;;;0.20;0.20;;;10.00;99.90;;;;;;5034266;28;20450;-92
2022/10/12 02:32:30;;;;;;;0.30;0.30;;;10.00;99.90;;;;;;5037444;28;20456;-92
2022/10/12 02:34:59;;;;;;;0.20;0.20;;;10.10;99.90;;;;;;5037654;28;20481;-93
2022/10/12 02:37:35;;;;;;;0.20;0.20;;;10.00;99.90;;;;;;5037316;28;20465;-92
2022/10/12 02:40:03;;;;;;;0.20;0.20;;;10.00;99.90;;;;;;5039030;28;20424;-94
2022/10/12 02:42:34;;;;;;;0.20;0.20;;;10.00;99.90;;;;;;5040972;28;20554;-94
2022/10/12 02:45:04;;;;;;;0.20;0.20;;;10.00;99.90;;;;;;5039562;28;20488;-92
2022/10/12 02:47:31;;;;;;;0.20;0.20;;;10.00;99.90;;;;;;5039934;28;20450;-94
2022/10/12 02:49:58;;;;;;;0.20;0.20;;;10.00;99.90;;;;;;5036365;28;20988;-94
2022/10/12 02:52:24;;;;;;;0.20;0.20;;;10.00;99.90;;;;;;5031661;28;20472;-93
2022/10/12 02:54:50;;;;;;;0.20;0.20;;;10.00;99.90;;;;;;5037394;28;20419;-93
2022/10/12 02:57:15;;;;;;;0.20;0.20;;;10.00;99.90;;;;;;5044175;28;20222;-93
2022/10/12 02:59:41;;;;;;;0.20;0.20;;;10.00;99.90;;;;;;5040013;28;20203;-93
2022/10/12 03:02:08;;;;;;;0.20;0.20;;;10.00;99.90;;;;;;5033620;28;20188;-93
2022/10/12 03:04:34;;;;;;;0.20;0.20;;;10.10;99.90;;;;;;5034388;28;20197;-93
2022/10/12 03:06:59;;;;;;;0.20;0.20;;;10.00;99.90;;;;;;5039967;28;20517;-94
2022/10/12 03:09:25;;;;;;;0.20;0.20;;;10.00;99.90;;;;;;5041403;28;20181;-92
2022/10/12 03:11:50;;;;;;;0.20;0.20;;;10.00;99.90;;;;;;5034774;28;20183;-92
2022/10/12 03:14:16;;;;;;;0.20;0.20;;;10.00;99.90;;;;;;5021850;28;20267;-93
2022/10/12 03:16:42;;;;;;;0.20;0.20;;;10.00;99.90;;;;;;5037939;28;20175;-93
2022/10/12 03:19:08;;;;;;;0.20;0.20;;;10.00;99.90;;;;;;5031489;28;20526;-95
2022/10/12 03:21:34;;;;;;;0.20;0.20;;;10.00;99.90;;;;;;5034366;28;20558;-93
2022/10/12 03:23:59;;;;;;;0.30;0.30;;;10.00;99.90;;;;;;5039462;28;20199;-93
2022/10/12 03:26:25;;;;;;;0.20;0.20;;;10.00;99.90;;;;;;5040438;28;20245;-92
2022/10/12 03:28:50;;;;;;;0.20;0.20;;;10.00;99.90;;;;;;5042898;28;20234;-93
2022/10/12 03:31:16;;;;;;;0.20;0.20;;;9.90;99.90;;;;;;5044699;28;20698;-94
2022/10/12 03:33:42;;;;;;;0.20;0.20;;;9.90;99.90;;;;;;5039008;28;20203;-93
2022/10/12 03:36:08;;;;;;;0.20;0.20;;;9.80;99.90;;;;;;5034463;28;20219;-94
2022/10/12 03:38:34;;;;;;;0.20;0.20;;;9.70;99.90;;;;;;5036482;28;20211;-93
2022/10/12 03:40:59;;;;;;;0.20;0.20;;;9.60;99.90;;;;;;5034913;28;20472;-94
2022/10/12 03:43:25;;;;;;;0.20;0.20;;;9.60;99.90;;;;;;5024465;28;20200;-93
2022/10/12 03:45:51;;;;;;;0.20;0.20;;;9.50;99.90;;;;;;5035630;28;20207;-94
2022/10/12 03:48:17;;;;;;;0.20;0.20;;;9.50;99.90;;;;;;5035426;28;20258;-93
2022/10/12 03:50:48;;;;;;;0.20;0.20;;;9.40;99.90;;;;;;5043858;28;20474;-93
2022/10/12 03:53:13;;;;;;;0.30;0.30;;;9.40;99.90;;;;;;5034087;28;20435;-94
2022/10/12 03:55:39;;;;;;;0.20;0.20;;;9.30;99.90;;;;;;5032822;28;21010;-93
2022/10/12 03:58:04;;;;;;;0.30;0.30;;;9.30;99.90;;;;;;5032477;28;20238;-91
2022/10/12 04:00:30;;;;;;;0.20;0.20;;;9.30;99.90;;;;;;5032982;28;20768;-92
2022/10/12 04:02:55;;;;;;;0.20;0.20;;;9.20;99.90;;;;;;5029843;28;20185;-93
2022/10/12 04:05:21;;;;;;;0.20;0.20;;;9.20;99.90;;;;;;5025169;28;20191;-94
2022/10/12 04:07:46;;;;;;;0.20;0.20;;;9.20;99.90;;;;;;5035390;28;20951;-93
2022/10/12 04:10:12;;;;;;;0.20;0.20;;;9.20;99.90;;;;;;5033450;28;20184;-93
2022/10/12 04:12:37;;;;;;;0.20;0.20;;;9.00;99.90;;;;;;5022414;28;20192;-93
2022/10/12 04:15:03;;;;;;;0.20;0.20;;;9.00;99.90;;;;;;5016819;28;20530;-92
2022/10/12 04:17:29;;;;;;;0.20;0.20;;;9.00;99.90;;;;;;5034362;28;20219;-93
2022/10/12 04:19:54;;;;;;;0.20;0.20;;;9.00;99.90;;;;;;5026147;28;20262;-92
2022/10/12 04:22:20;;;;;;;0.20;0.20;;;9.00;99.90;;;;;;5029257;28;20187;-94
2022/10/12 04:24:46;;;;;;;0.20;0.20;;;9.00;99.90;;;;;;5032402;28;20733;-92
2022/10/12 04:27:11;;;;;;;0.23;0.23;;;8.80;99.90;;;;;;5038048;28;20279;-91
2022/10/12 04:29:37;;;;;;;0.20;0.20;;;8.80;99.90;;;;;;5036734;28;20192;-93
2022/10/12 04:32:02;;;;;;;0.20;0.20;;;8.90;99.90;;;;;;5036672;28;20195;-93
2022/10/12 04:34:28;;;;;;;0.30;0.30;;;8.70;99.90;;;;;;5038999;28;20175;-94
2022/10/12 04:36:53;;;;;;;0.27;0.27;;;8.80;99.90;;;;;;5035087;28;20276;-94
2022/10/12 04:39:19;;;;;;;0.27;0.27;;;8.70;99.90;;;;;;5035493;28;20223;-93
2022/10/12 04:41:44;;;;;;;0.20;0.20;;;8.70;99.90;;;;;;5018817;28;20238;-93
2022/10/12 04:44:10;;;;;;;0.30;0.30;;;8.70;99.90;;;;;;5033555;28;20227;-93
2022/10/12 04:46:35;;;;;;;0.20;0.20;;;8.50;99.90;;;;;;5034618;28;20188;-94
2022/10/12 04:49:01;;;;;;;0.20;0.20;;;8.60;99.90;;;;;;5034365;28;20194;-94
2022/10/12 04:51:26;;;;;;;0.30;0.30;;;8.60;99.90;;;;;;5032291;28;20194;-95
2022/10/12 04:53:52;;;;;;;0.20;0.20;;;8.60;99.90;;;;;;5032687;28;20222;-93
2022/10/12 04:56:18;;;;;;;0.30;0.30;;;8.50;99.90;;;;;;5034650;28;20219;-94
2022/10/12 04:58:43;;;;;;;0.30;0.30;;;8.50;99.90;;;;;;5033699;28;20337;-94
2022/10/12 05:01:09;;;;;;;0.30;0.30;;;8.50;99.90;;;;;;5022893;28;20453;-94
2022/10/12 05:03:34;;;;;;;0.20;0.20;;;8.50;99.90;;;;;;5038964;28;20190;-95
2022/10/12 05:06:00;;;;;;;0.30;0.30;;;8.50;99.90;;;;;;5028311;28;20196;-94
2022/10/12 05:08:25;;;;;;;0.20;0.20;;;8.50;99.90;;;;;;5032867;28;20199;-93
2022/10/12 05:10:51;;;;;;;0.30;0.30;;;8.40;99.90;;;;;;5033744;28;20183;-94
2022/10/12 05:13:16;;;;;;;0.20;0.20;;;8.40;99.90;;;;;;5030533;28;20265;-94
2022/10/12 05:15:43;;;;;;;0.20;0.20;;;8.40;99.90;;;;;;5040353;28;20211;-94
2022/10/12 05:18:09;;;;;;;0.30;0.30;;;8.40;99.90;;;;;;5038764;28;20262;-94
2022/10/12 05:20:34;;;;;;;0.30;0.30;;;8.30;99.90;;;;;;5039047;28;20438;-93
2022/10/12 05:23:00;;;;;;;0.30;0.30;;;8.30;99.90;;;;;;5038854;28;20843;-94
2022/10/12 05:25:28;;;;;;;0.20;0.20;;;8.30;99.90;;;;;;5031857;28;20196;-92
2022/10/12 05:27:54;;;;;;;0.20;0.20;;;8.30;99.90;;;;;;5031355;28;20188;-92
2022/10/12 05:30:19;;;;;;;0.30;0.30;;;8.30;99.90;;;;;;5025171;28;20433;-94
2022/10/12 05:32:45;;;;;;;0.20;0.20;;;8.30;99.90;;;;;;5030055;28;20474;-94
2022/10/12 05:35:10;;;;;;;0.20;0.20;;;8.30;99.90;;;;;;5032731;28;20230;-94
2022/10/12 05:37:36;;;;;;;0.30;0.30;;;8.30;99.90;;;;;;5029379;28;20223;-93
2022/10/12 05:40:02;;;;;;;0.30;0.30;;;8.30;99.90;;;;;;5034011;28;20198;-93
2022/10/12 05:42:28;;;;;;;0.30;0.30;;;8.30;99.90;;;;;;5035658;28;20260;-94
2022/10/12 05:44:53;;;;;;;0.20;0.20;;;8.20;99.90;;;;;;5038561;28;20441;-93
2022/10/12 05:47:18;;;;;;;0.30;0.30;;;8.10;99.90;;;;;;5031184;28;20233;-93
2022/10/12 05:49:44;;;;;;;0.30;0.30;;;8.20;99.90;;;;;;5034709;28;20203;-92
2022/10/12 05:52:10;;;;;;;0.20;0.20;;;8.20;99.90;;;;;;5032146;28;20196;-93
2022/10/12 05:54:35;;;;;;;0.20;0.20;;;8.20;99.90;;;;;;5035848;28;20188;-94
2022/10/12 05:57:01;;;;;;;0.30;0.30;;;8.20;99.90;;;;;;5036868;28;20234;-94
2022/10/12 05:59:26;;;;;;;0.30;0.30;;;8.20;99.90;;;;;;5037002;28;20230;-93
2022/10/12 06:01:52;;;;;;;0.30;0.30;;;8.20;99.90;;;;;;5031046;28;20669;-93
2022/10/12 06:04:17;;;;;;;0.30;0.30;;;8.30;99.90;;;;;;5034767;28;20556;-93
2022/10/12 06:06:43;;;;;;;0.23;0.23;;;8.30;99.90;;;;;;5029480;28;20218;-93
2022/10/12 06:09:08;;;;;;;0.30;0.30;;;8.30;99.90;;;;;;5034112;28;20187;-94
2022/10/12 06:11:34;;;;;;;0.30;0.30;;;8.20;99.90;;;;;;5031774;28;20278;-93
2022/10/12 06:13:59;;;;;;;0.20;0.20;;;8.20;99.90;;;;;;5034897;28;20195;-95
2022/10/12 06:16:25;;;;;;;0.20;0.20;;;8.20;99.90;;;;;;5035064;28;20998;-94
2022/10/12 06:18:50;;;;;;;0.30;0.30;;;8.10;99.90;;;;;;5032840;28;20219;-94
2022/10/12 06:21:16;;;;;;;0.30;0.30;;;8.20;99.90;;;;;;5031865;28;20516;-93
2022/10/12 06:23:42;;;;;;;0.30;0.30;;;8.10;99.90;;;;;;5035091;28;20682;-93
2022/10/12 06:26:07;;;;;;;0.30;0.30;;;8.10;99.90;;;;;;5031582;28;20180;-92
2022/10/12 06:28:33;;;;;;;0.30;0.30;;;8.10;99.90;;;;;;5033071;28;20187;-93
2022/10/12 06:30:59;;;;;;;0.30;0.30;;;8.20;99.90;;;;;;5029904;28;20188;-93
2022/10/12 06:33:26;;;;;;;0.30;0.30;;;8.10;99.90;;;;;;5030910;28;20187;-93
2022/10/12 06:35:52;;;;;;;0.20;0.20;;;8.20;99.90;;;;;;5023749;28;20497;-89
2022/10/12 06:38:18;;;;;;;0.20;0.20;;;8.20;99.90;;;;;;5020121;28;20478;-94
2022/10/12 06:40:43;;;;;;;0.20;0.20;;;8.20;99.90;;;;;;5031655;28;20500;-94
2022/10/12 06:43:09;;;;;;;0.30;0.30;;;8.30;99.90;;;;;;5035003;28;20800;-95
2022/10/12 06:45:35;;;;;;;0.30;0.30;;;8.20;99.90;;;;;;5030785;28;22116;-89
2022/10/12 06:48:00;;;;;;;0.20;0.20;;;8.30;99.90;;;;;;5030150;28;20203;-91
2022/10/12 06:50:26;;;;;;;0.30;0.30;;;8.30;99.90;;;;;;5029538;28;20473;-88
2022/10/12 06:52:52;;;;;;;0.20;0.20;;;8.30;99.90;;;;;;5027285;28;20191;-90
2022/10/12 06:55:18;;;;;;;0.30;0.30;;;8.30;99.90;;;;;;5026832;28;20190;-91
2022/10/12 06:57:43;;;;;;;0.30;0.30;;;8.30;99.90;;;;;;5025607;28;20490;-93
2022/10/12 07:00:10;;;;;;;0.30;0.30;;;8.30;99.90;;;;;;5024648;28;20188;-93
2022/10/12 07:02:35;;;;;;;0.20;0.20;;;8.40;99.90;;;;;;5030620;28;20244;-92
2022/10/12 07:05:01;;;;;;;0.30;0.30;;;8.50;99.90;;;;;;5016693;28;20497;-94
2022/10/12 07:07:31;;;;;;;0.30;0.30;;;8.60;99.90;;;;;;5020120;28;20198;-91
2022/10/12 07:09:57;;;;;;;0.30;0.30;;;8.70;99.90;;;;;;5030515;28;20291;-95
2022/10/12 07:12:23;;;;;;;0.20;0.20;;;8.70;99.90;;;;;;5030291;28;21036;-91
2022/10/12 07:14:48;;;;;;;0.30;0.30;;;8.80;99.90;;;;;;5036910;28;20188;-93
2022/10/12 07:17:14;;;;;;;0.20;0.20;;;8.80;99.90;;;;;;5022558;28;20235;-93
2022/10/12 07:19:39;;;;;;;0.30;0.30;;;9.00;99.90;;;;;;5027361;28;20206;-91
2022/10/12 07:22:05;;;;;;;0.20;0.20;;;9.10;99.90;;;;;;5034739;28;20188;-92
2022/10/12 07:24:36;;;;;;;0.20;0.20;;;9.10;99.90;;;;;;5032186;28;20195;-90
2022/10/12 07:27:04;;;;;;;0.20;0.20;;;9.20;99.90;;;;;;5033201;28;20184;-90
2022/10/12 07:29:34;;;;;;;0.20;0.20;;;9.30;99.90;;;;;;5031846;28;20447;-94
2022/10/12 07:31:59;;;;;;;0.20;0.20;;;9.50;99.90;;;;;;5031527;28;21018;-94
2022/10/12 07:34:26;;;;;;;0.20;0.20;;;9.50;99.90;;;;;;5033328;28;20446;-90
2022/10/12 07:36:52;;;;;;;0.20;0.20;;;9.60;99.90;;;;;;5032454;28;20187;-91
2022/10/12 07:39:17;;;;;;;0.20;0.20;;;9.70;99.90;;;;;;5032712;28;20466;-94
2022/10/12 07:41:43;;;;;;;0.20;0.20;;;9.80;99.90;;;;;;5043254;28;20227;-93
2022/10/12 07:44:09;;;;;;;0.20;0.20;;;9.90;99.90;;;;;;5035357;28;20195;-90
2022/10/12 07:46:35;;;;;;;0.20;0.20;;;10.00;99.90;;;;;;5033325;28;20214;-91
2022/10/12 07:49:01;;;;;;;0.20;0.20;;;10.00;99.90;;;;;;5032727;28;20446;-91
2022/10/12 07:51:27;;;;;;;0.20;0.20;;;10.10;99.90;;;;;;5037379;28;20230;-92
2022/10/12 07:53:53;;;;;;;0.20;0.20;;;10.20;99.90;;;;;;5036104;28;20941;-92
2022/10/12 07:56:18;;;;;;;0.20;0.20;;;10.30;99.90;;;;;;5030642;28;21053;-93
2022/10/12 07:58:53;;;;;;;0.20;0.20;;;10.50;99.90;;;;;;5033122;28;20239;-91
2022/10/12 08:01:20;;;;;;;0.20;0.20;;;10.60;99.90;;;;;;5025083;28;20266;-92
2022/10/12 08:03:46;;;;;;;0.20;0.20;;;10.60;99.90;;;;;;5022122;28;20487;-93
2022/10/12 08:06:15;;;;;;;0.20;0.20;;;10.80;99.90;;;;;;5021197;28;20575;-91
2022/10/12 08:08:41;;;;;;;0.20;0.20;;;10.80;99.90;;;;;;5033903;28;20557;-94
2022/10/12 08:11:08;;;;;;;0.20;0.20;;;10.80;99.90;;;;;;5033153;28;20556;-90
2022/10/12 08:13:33;;;;;;;0.20;0.20;;;11.10;99.90;;;;;;5043953;28;20443;-92
2022/10/12 08:16:00;;;;;;;0.20;0.20;;;11.20;99.90;;;;;;5035436;28;21216;-91
2022/10/12 08:18:26;;;;;;;0.20;0.20;;;11.30;99.90;;;;;;5032127;28;20255;-90
2022/10/12 08:20:52;;;;;;;0.20;0.20;;;11.50;99.90;;;;;;5027552;28;20469;-92
2022/10/12 08:23:17;;;;;;;0.10;0.10;;;11.60;99.90;;;;;;5027166;28;20206;-92
2022/10/12 08:25:53;;;;;;;0.20;0.20;;;11.80;99.90;;;;;;5034305;28;20183;-94
2022/10/12 08:28:19;;;;;;;0.20;0.20;;;11.80;99.90;;;;;;5038095;28;20204;-92
2022/10/12 08:30:44;;;;;;;0.20;0.20;;;11.80;99.90;;;;;;5034852;28;20934;-88
2022/10/12 08:33:12;;;;;;;0.20;0.20;;;11.70;99.90;;;;;;5027132;28;20193;-92
2022/10/12 08:35:40;;;;;;;0.20;0.20;;;12.00;99.90;;;;;;5028863;28;20183;-90
2022/10/12 08:38:10;;;;;;;0.10;0.10;;;12.30;99.90;;;;;;5039072;28;20569;-90
2022/10/12 08:41:17;;;;;;;0.20;0.20;;;12.30;99.90;;;;;;5035255;28;20442;-92
2022/10/12 08:44:23;;;;;;;0.20;0.20;;;12.50;99.90;;;;;;5035941;28;20439;-93
2022/10/12 08:46:54;;;;;;;0.10;0.10;;;12.60;99.90;;;;;;5039014;28;20462;-93
2022/10/12 08:49:24;;;;;;;0.20;0.20;;;12.80;99.90;;;;;;5039142;28;20449;-92
2022/10/12 08:51:55;;;;;;;0.10;0.10;;;13.00;99.90;;;;;;5035438;28;20501;-90
2022/10/12 08:54:29;;;;;;;0.10;0.10;;;13.20;99.90;;;;;;5036818;28;20856;-92
2022/10/12 08:56:56;;;;;;;0.10;0.10;;;13.20;99.90;;;;;;5021140;28;20441;-91
2022/10/12 08:59:22;;;;;;;0.17;0.17;;;13.30;99.90;;;;;;5032496;28;20509;-92
2022/10/12 09:01:50;;;;;;;0.10;0.10;;;13.40;99.90;;;;;;5034038;28;20477;-92
2022/10/12 09:04:21;;;;;;;0.10;0.10;;;13.50;99.90;;;;;;5036991;28;20191;-92
2022/10/12 09:06:50;;;;;;;0.10;0.10;;;13.50;99.90;;;;;;5037180;28;20442;-92
2022/10/12 09:09:25;;;;;;;0.10;0.10;;;13.40;99.90;;;;;;5035407;28;20510;-89
2022/10/12 09:12:18;;;;;;;0.10;0.10;;;13.60;99.90;;;;;;5027858;28;20443;-93
2022/10/12 09:14:46;;;;;;;0.10;0.10;;;13.80;99.90;;;;;;5023058;28;21101;-91
2022/10/12 09:17:37;;;;;;;0.10;0.10;;;13.80;99.90;;;;;;5025684;28;20529;-94
2022/10/12 09:20:27;;;;;;;0.10;0.10;;;14.30;99.90;;;;;;5031990;28;20523;-91
2022/10/12 09:23:45;;;;;;;0.10;0.10;;;14.50;99.90;;;;;;5030962;28;20478;-94
2022/10/12 09:26:16;;;;;;;0.10;0.10;;;14.80;99.90;;;;;;5011255;28;20442;-90
2022/10/12 09:28:54;;;;;;;0.10;0.10;;;14.70;99.90;;;;;;5039391;28;20466;-92
2022/10/12 09:31:32;;;;;;;0.10;0.10;;;15.10;99.90;;;;;;5032764;28;20442;-93
2022/10/12 09:34:01;;;;;;;0.20;0.10;;;15.40;99.90;;;;;;5030029;28;20442;-92
2022/10/12 09:36:39;;;;;;;0.10;0.10;;;15.30;99.90;;;;;;5021868;28;20478;-93
2022/10/12 09:39:17;;;;;;;0.10;0.10;;;15.30;99.90;;;;;;5029237;28;21013;-92
2022/10/12 09:41:45;;;;;;;0.10;0.10;;;15.40;99.90;;;;;;5024322;28;20469;-91
2022/10/12 09:44:23;;;;;;;0.10;0.10;;;15.80;99.90;;;;;;5030183;28;21523;-92
2022/10/12 09:46:57;;;;;;;0.10;0.10;;;16.20;99.90;;;;;;5025888;28;20468;-95
2022/10/12 09:49:39;;;;;;;0.10;0.10;;;15.90;99.90;;;;;;5038821;28;20447;-95
2022/10/12 09:52:05;;;;;;;0.10;0.10;;;16.00;99.90;;;;;;5026494;28;20434;-91
2022/10/12 09:54:31;;;;;;;0.10;0.10;;;16.30;99.90;;;;;;5032240;28;20864;-94
2022/10/12 09:56:57;;;;;;;0.10;0.10;;;16.30;99.90;;;;;;5033440;28;20262;-96
2022/10/12 09:59:46;;;;;;;0.10;0.10;;;16.90;99.90;;;;;;5032944;28;20457;-93
2022/10/12 10:02:24;;;;;;;0.10;0.10;;;16.90;99.90;;;;;;5020751;28;20821;-96
2022/10/12 10:04:51;;;;;;;0.10;0.10;;;16.60;99.90;;;;;;5025283;28;20485;-94
2022/10/12 10:07:32;;;;;;;0.10;0.10;;;16.90;99.90;;;;;;5033288;28;20853;-95
2022/10/12 10:10:20;;;;;;;0.10;0.10;;;17.20;99.90;;;;;;5029464;28;20469;-92
2022/10/12 10:12:55;;;;;;;0.10;0.10;;;17.20;99.90;;;;;;5030536;28;20446;-96
2022/10/12 10:15:33;;;;;;;0.10;0.10;;;17.20;99.90;;;;;;5027937;28;20450;-94
2022/10/12 10:18:02;;;;;;;0.10;0.10;;;17.00;99.90;;;;;;5030991;28;21083;-95
2022/10/12 10:20:32;;;;;;;0.10;0.10;;;17.20;99.90;;;;;;5028424;28;20437;-94
2022/10/12 10:23:01;;;;;;;0.10;0.10;;;17.60;99.90;;;;;;5030178;28;20810;-85
2022/10/12 10:25:26;;;;;;;0.10;0.10;;;18.00;99.90;;;;;;5026911;28;20465;-93
2022/10/12 10:28:11;;;;;;;0.10;0.10;;;18.40;99.90;;;;;;5027929;28;20474;-85
2022/10/12 10:30:37;;;;;;;0.10;0.10;;;18.50;99.90;;;;;;5030196;28;20184;-92
2022/10/12 10:33:21;;;;;;;0.10;0.10;;;18.50;99.90;;;;;;5031221;28;20456;-95
2022/10/12 10:35:55;;;;;;;0.10;0.10;;;18.70;99.90;;;;;;5024235;28;20206;-94
2022/10/12 10:38:21;;;;;;;0.10;0.10;;;18.50;99.90;;;;;;5025167;28;21000;-92
2022/10/12 10:40:53;;;;;;;0.10;0.10;;;18.40;99.90;;;;;;5024515;28;20442;-93
2022/10/12 10:43:23;;;;;;;0.10;0.10;;;18.10;99.90;;;;;;5028271;28;20230;-96
2022/10/12 10:45:55;;;;;;;0.10;0.10;;;18.50;99.90;;;;;;5031203;28;20440;-92
2022/10/12 10:48:28;;;;;;;0.10;0.10;;;18.60;99.90;;;;;;5024728;28;20478;-94
2022/10/12 10:51:00;;;;;;;0.10;0.00;;;19.00;99.90;;;;;;5021837;28;20442;-96
2022/10/12 10:53:30;;;;;;;0.10;0.10;;;19.00;99.90;;;;;;5033882;28;20495;-93
2022/10/12 10:56:15;;;;;;;0.10;0.00;;;19.20;99.90;;;;;;5035097;28;20446;-94
2022/10/12 10:58:45;;;;;;;0.10;0.00;;;19.50;99.90;;;;;;5028388;28;20479;-92
2022/10/12 11:01:43;;;;;;;0.10;0.00;;;19.40;99.90;;;;;;5023514;28;20490;-93
2022/10/12 11:04:33;;;;;;;0.10;0.07;;;18.60;99.90;;;;;;5031907;28;20458;-94
2022/10/12 11:07:15;;;;;;;0.10;0.00;;;18.50;99.90;;;;;;5031472;28;20446;-93
2022/10/12 11:09:43;;;;;;;0.10;0.10;;;19.00;99.90;;;;;;5032167;28;21032;-92
2022/10/12 11:12:15;;;;;;;0.20;0.10;;;19.30;99.90;;;;;;5032792;28;20449;-93
2022/10/12 11:14:49;;;;;;;0.10;0.00;;;19.10;99.90;;;;;;5026496;28;20442;-94
2022/10/12 11:17:27;;;;;;;0.10;0.00;;;19.70;99.90;;;;;;5025281;28;20476;-95
2022/10/12 11:20:05;;;;;;;0.10;0.00;;;20.30;99.90;;;;;;5037815;28;20814;-95
2022/10/12 11:22:56;;;;;;;0.10;0.00;;;19.70;99.90;;;;;;5032580;28;20575;-89
2022/10/12 11:25:39;;;;;;;0.10;0.00;;;20.00;99.90;;;;;;5028687;28;20970;-94
2022/10/12 11:28:06;;;;;;;0.10;0.00;;;20.20;99.90;;;;;;5027170;28;20441;-93
2022/10/12 11:30:39;;;;;;;0.10;0.00;;;20.00;99.90;;;;;;5030856;28;20457;-89
2022/10/12 11:33:11;;;;;;;0.10;0.00;;;19.70;99.90;;;;;;5031239;28;21091;-89
2022/10/12 11:35:41;;;;;;;0.10;0.00;;;19.90;99.90;;;;;;5028160;28;20933;-90
2022/10/12 11:38:17;;;;;;;0.10;0.00;;;20.30;99.90;;;;;;5022723;28;20497;-89
2022/10/12 11:41:00;;;;;;;0.10;0.00;;;20.00;99.90;;;;;;5025018;28;21427;-95
2022/10/12 11:43:31;;;;;;;0.10;0.00;;;20.40;99.90;;;;;;5025031;28;20535;-88
2022/10/12 11:46:02;;;;;;;0.10;0.00;;;20.40;99.90;;;;;;5028860;28;20960;-87
2022/10/12 11:48:34;;;;;;;0.10;0.00;;;20.60;99.90;;;;;;5028759;28;20436;-86
2022/10/12 11:51:00;;;;;;;0.10;0.00;;;20.40;99.90;;;;;;5031021;28;20446;-86
2022/10/12 11:53:46;;;;;;;0.10;0.00;;;20.70;99.90;;;;;;5029836;28;20454;-86
2022/10/12 11:56:25;;;;;;;0.10;0.00;;;21.20;99.90;;;;;;5031636;28;20450;-87
2022/10/12 11:58:59;;;;;;;0.10;0.00;;;21.00;99.90;;;;;;5025193;28;20561;-86
2022/10/12 12:01:48;;;;;;;0.10;0.00;;;21.10;99.90;;;;;;5026812;28;20450;-87
2022/10/12 12:04:20;;;;;;;0.10;0.00;;;21.30;99.90;;;;;;5029978;28;20480;-88
2022/10/12 12:06:55;;;;;;;0.10;0.00;;;20.10;99.90;;;;;;5022946;28;20434;-88
2022/10/12 12:09:32;;;;;;;0.10;0.00;;;20.30;99.90;;;;;;5026114;28;20800;-89
2022/10/12 12:12:10;;;;;;;0.10;0.00;;;20.60;99.90;;;;;;5027367;28;20902;-86
2022/10/12 12:14:35;;;;;;;0.10;0.00;;;21.00;99.90;;;;;;5029582;28;20446;-86
2022/10/12 12:17:16;;;;;;;0.10;0.00;;;21.40;99.90;;;;;;5030380;28;20446;-86
2022/10/12 12:19:42;;;;;;;0.10;0.00;;;21.90;99.90;;;;;;5032396;28;20651;-88
2022/10/12 12:22:32;;;;;;;0.10;0.00;;;22.20;99.90;;;;;;5029554;28;20438;-86
2022/10/12 12:25:07;;;;;;;0.10;0.00;;;20.20;99.90;;;;;;5030962;28;20503;-90
2022/10/12 12:27:40;;;;;;;0.10;0.10;;;18.50;99.90;;;;;;5028568;28;20810;-87
2022/10/12 12:30:17;;;;;;;0.10;0.00;;;19.20;99.90;;;;;;5028627;28;20447;-87
2022/10/12 12:32:58;;;;;;;0.10;0.00;;;21.00;99.90;;;;;;5022827;28;20926;-86
2022/10/12 12:35:49;;;;;;;0.10;0.00;;;21.00;99.90;;;;;;5024205;28;20453;-86
2022/10/12 12:38:21;;;;;;;0.10;0.00;;;21.10;99.90;;;;;;5024032;28;21044;-86
2022/10/12 12:40:57;;;;;;;0.10;0.00;;;21.70;99.90;;;;;;5028668;28;21084;-89
2022/10/12 12:43:29;;;;;;;0.10;0.00;;;20.50;99.90;;;;;;5026040;28;20470;-88
2022/10/12 12:45:56;;;;;;;0.10;0.00;;;19.30;99.90;;;;;;5026514;28;20442;-87
2022/10/12 12:48:37;;;;;;;0.10;0.10;;;18.20;99.90;;;;;;5028825;28;20961;-87
2022/10/12 12:51:07;;;;;;;0.10;0.10;;;17.60;99.90;;;;;;5027284;28;20519;-88
2022/10/12 12:53:36;;;;;;;0.10;0.00;;;18.00;99.90;;;;;;5024639;28;20957;-87
2022/10/12 12:56:20;;;;;;;0.10;0.10;;;18.20;99.90;;;;;;5029538;28;20445;-86
2022/10/12 12:58:56;;;;;;;0.10;0.00;;;19.90;99.90;;;;;;5027207;28;20533;-86
2022/10/12 13:02:00;;;;;;;0.10;0.00;;;20.70;99.90;;;;;;5026636;28;20457;-86
2022/10/12 13:04:35;;;;;;;0.10;0.10;;;19.40;99.90;;;;;;5027363;28;20445;-87
2022/10/12 13:07:19;;;;;;;0.10;0.00;;;18.40;99.90;;;;;;5028008;28;20448;-87
2022/10/12 13:10:24;;;;;;;0.10;0.00;;;18.60;99.90;;;;;;5028020;28;20537;-87